createdAt,value
2022-10-06T00:00:08.493Z,11.4
2022-10-06T00:01:08.723Z,11.4
2022-10-06T00:02:09.060Z,11.4
2022-10-06T00:03:09.239Z,11.4
2022-10-06T00:04:10.077Z,11.4
2022-10-06T00:05:10.240Z,11.4
2022-10-06T00:06:10.373Z,11.3
2022-10-06T00:07:10.501Z,11.3
2022-10-06T00:08:10.630Z,11.3
2022-10-06T00:09:10.756Z,11.3
2022-10-06T00:10:10.884Z,11.3
2022-10-06T00:11:11.017Z,11.3
2022-10-06T00:12:11.196Z,11.3
2022-10-06T00:13:11.345Z,11.3
2022-10-06T00:14:11.521Z,11.3
2022-10-06T00:15:11.648Z,11.3
2022-10-06T00:16:11.940Z,11.2
2022-10-06T00:17:12.187Z,11.2
2022-10-06T00:18:12.318Z,11.2
2022-10-06T00:19:12.449Z,11.2
2022-10-06T00:20:12.574Z,11.2
2022-10-06T00:21:12.701Z,11.2
2022-10-06T00:22:12.827Z,11.2
2022-10-06T00:23:12.954Z,11.2
2022-10-06T00:24:13.080Z,11.2
2022-10-06T00:25:13.221Z,11.2
2022-10-06T00:26:13.348Z,11.2
2022-10-06T00:27:13.479Z,11.2
2022-10-06T00:28:13.684Z,11.2
2022-10-06T00:29:13.898Z,11.2
2022-10-06T00:30:14.021Z,11.2
2022-10-06T00:31:14.282Z,11.2
2022-10-06T00:32:14.501Z,11.2
2022-10-06T00:33:14.629Z,11.2
2022-10-06T00:34:14.754Z,11.2
2022-10-06T00:35:14.886Z,11.2
2022-10-06T00:36:15.008Z,11.1
2022-10-06T00:37:15.135Z,11.1
2022-10-06T00:38:15.261Z,11.1
2022-10-06T00:39:15.388Z,11.1
2022-10-06T00:40:15.514Z,11.1
2022-10-06T00:41:15.643Z,11.1
2022-10-06T00:42:15.775Z,11.1
2022-10-06T00:43:15.918Z,11.1
2022-10-06T00:44:16.049Z,11.1
2022-10-06T00:45:16.183Z,11.1
2022-10-06T00:46:16.467Z,11
2022-10-06T00:47:16.731Z,11
2022-10-06T00:48:16.858Z,11
2022-10-06T00:49:16.993Z,11
2022-10-06T00:50:17.122Z,11
2022-10-06T00:51:17.252Z,11
2022-10-06T00:52:17.380Z,11
2022-10-06T00:53:17.510Z,11
2022-10-06T00:54:17.643Z,11
2022-10-06T00:55:17.779Z,11
2022-10-06T00:56:17.901Z,10.9
2022-10-06T00:57:18.027Z,10.9
2022-10-06T00:58:18.184Z,10.9
2022-10-06T00:59:18.318Z,10.9
2022-10-06T01:00:18.442Z,10.9
2022-10-06T01:01:18.779Z,10.9
2022-10-06T01:02:19.204Z,10.9
2022-10-06T01:03:19.441Z,10.9
2022-10-06T01:04:19.567Z,10.9
2022-10-06T01:05:19.694Z,10.9
2022-10-06T01:06:19.819Z,10.9
2022-10-06T01:07:19.942Z,10.9
2022-10-06T01:08:20.072Z,10.9
2022-10-06T01:09:20.199Z,10.9
2022-10-06T01:10:20.327Z,10.9
2022-10-06T01:11:20.455Z,10.9
2022-10-06T01:12:20.583Z,10.9
2022-10-06T01:13:20.712Z,10.9
2022-10-06T01:14:20.839Z,10.9
2022-10-06T01:15:20.969Z,10.9
2022-10-06T01:16:21.286Z,10.8
2022-10-06T01:17:21.540Z,10.8
2022-10-06T01:18:21.664Z,10.8
2022-10-06T01:19:21.789Z,10.8
2022-10-06T01:20:21.913Z,10.8
2022-10-06T01:21:22.034Z,10.8
2022-10-06T01:22:22.182Z,10.8
2022-10-06T01:23:22.325Z,10.8
2022-10-06T01:24:22.510Z,10.8
2022-10-06T01:25:22.642Z,10.8
2022-10-06T01:26:22.766Z,10.8
2022-10-06T01:27:22.892Z,10.8
2022-10-06T01:28:23.115Z,10.8
2022-10-06T01:29:23.387Z,10.8
2022-10-06T01:30:23.513Z,10.8
2022-10-06T01:31:23.786Z,10.8
2022-10-06T01:32:24.082Z,10.8
2022-10-06T01:33:24.215Z,10.8
2022-10-06T01:34:24.347Z,10.8
2022-10-06T01:35:24.510Z,10.8
2022-10-06T01:36:24.639Z,10.8
2022-10-06T01:37:24.779Z,10.8
2022-10-06T01:38:24.905Z,10.8
2022-10-06T01:39:25.034Z,10.8
2022-10-06T01:40:25.161Z,10.8
2022-10-06T01:41:25.302Z,10.8
2022-10-06T01:42:25.433Z,10.8
2022-10-06T01:43:25.579Z,10.8
2022-10-06T01:44:25.714Z,10.8
2022-10-06T01:45:25.845Z,10.8
2022-10-06T01:46:26.150Z,10.7
2022-10-06T01:47:26.374Z,10.7
2022-10-06T01:48:27.801Z,10.7
2022-10-06T01:49:28.773Z,10.7
2022-10-06T01:50:28.898Z,10.7
2022-10-06T01:51:29.023Z,10.7
2022-10-06T01:52:29.137Z,10.7
2022-10-06T01:53:29.259Z,10.7
2022-10-06T01:54:29.379Z,10.7
2022-10-06T01:55:29.511Z,10.7
2022-10-06T01:56:29.642Z,10.7
2022-10-06T01:57:29.771Z,10.7
2022-10-06T01:58:30.883Z,10.7
2022-10-06T01:59:31.779Z,10.7
2022-10-06T02:00:31.906Z,10.7
2022-10-06T02:01:32.241Z,10.7
2022-10-06T02:02:32.533Z,10.7
2022-10-06T02:03:32.661Z,10.7
2022-10-06T02:04:32.786Z,10.7
2022-10-06T02:05:32.919Z,10.7
2022-10-06T02:06:33.187Z,10.7
2022-10-06T02:07:33.455Z,10.7
2022-10-06T02:08:33.576Z,10.7
2022-10-06T02:09:33.704Z,10.7
2022-10-06T02:10:33.856Z,10.7
2022-10-06T02:11:33.984Z,10.7
2022-10-06T02:12:34.113Z,10.7
2022-10-06T02:13:34.240Z,10.7
2022-10-06T02:14:34.372Z,10.7
2022-10-06T02:15:34.790Z,10.7
2022-10-06T02:16:34.994Z,10.7
2022-10-06T02:17:35.121Z,10.7
2022-10-06T02:18:35.247Z,10.7
2022-10-06T02:19:35.374Z,10.7
2022-10-06T02:20:35.504Z,10.7
2022-10-06T02:21:35.631Z,10.7
2022-10-06T02:22:35.762Z,10.7
2022-10-06T02:23:35.891Z,10.7
2022-10-06T02:24:36.012Z,10.7
2022-10-06T02:25:36.146Z,10.7
2022-10-06T02:26:36.272Z,10.6
2022-10-06T02:27:36.395Z,10.6
2022-10-06T02:28:36.593Z,10.6
2022-10-06T02:29:36.811Z,10.6
2022-10-06T02:30:36.940Z,10.6
2022-10-06T02:31:37.225Z,10.6
2022-10-06T02:32:37.472Z,10.6
2022-10-06T02:33:37.602Z,10.6
2022-10-06T02:34:37.722Z,10.6
2022-10-06T02:35:37.841Z,10.6
2022-10-06T02:36:37.967Z,10.6
2022-10-06T02:37:38.103Z,10.6
2022-10-06T02:38:38.237Z,10.6
2022-10-06T02:39:38.361Z,10.6
2022-10-06T02:40:38.487Z,10.6
2022-10-06T02:41:38.616Z,10.6
2022-10-06T02:42:38.747Z,10.6
2022-10-06T02:43:38.876Z,10.6
2022-10-06T02:44:39.006Z,10.6
2022-10-06T02:45:39.134Z,10.5
2022-10-06T02:46:39.354Z,10.5
2022-10-06T02:47:39.563Z,10.5
2022-10-06T02:48:39.706Z,10.5
2022-10-06T02:49:39.834Z,10.5
2022-10-06T02:50:39.962Z,10.5
2022-10-06T02:51:40.084Z,10.5
2022-10-06T02:52:40.206Z,10.5
2022-10-06T02:53:40.331Z,10.5
2022-10-06T02:54:40.455Z,10.5
2022-10-06T02:55:40.573Z,10.5
2022-10-06T02:56:40.696Z,10.5
2022-10-06T02:57:40.826Z,10.5
2022-10-06T02:58:40.956Z,10.5
2022-10-06T02:59:41.087Z,10.5
2022-10-06T03:00:41.235Z,10.5
2022-10-06T03:01:41.638Z,10.5
2022-10-06T03:02:42.301Z,10.5
2022-10-06T03:03:42.720Z,10.5
2022-10-06T03:04:42.850Z,10.5
2022-10-06T03:05:42.981Z,10.5
2022-10-06T03:06:43.104Z,10.5
2022-10-06T03:07:43.232Z,10.5
2022-10-06T03:08:43.359Z,10.5
2022-10-06T03:09:43.487Z,10.5
2022-10-06T03:10:43.614Z,10.5
2022-10-06T03:11:43.747Z,10.5
2022-10-06T03:12:43.890Z,10.5
2022-10-06T03:13:44.016Z,10.5
2022-10-06T03:14:44.149Z,10.5
2022-10-06T03:15:44.403Z,10.4
2022-10-06T03:16:44.641Z,10.4
2022-10-06T03:17:44.764Z,10.4
2022-10-06T03:18:44.899Z,10.4
2022-10-06T03:19:45.026Z,10.4
2022-10-06T03:20:45.155Z,10.4
2022-10-06T03:21:45.285Z,10.4
2022-10-06T03:22:45.530Z,10.4
2022-10-06T03:23:45.687Z,10.4
2022-10-06T03:24:45.819Z,10.4
2022-10-06T03:25:45.945Z,10.4
2022-10-06T03:26:46.071Z,10.4
2022-10-06T03:27:46.193Z,10.4
2022-10-06T03:28:46.457Z,10.4
2022-10-06T03:29:46.749Z,10.4
2022-10-06T03:30:46.871Z,10.4
2022-10-06T03:31:47.190Z,10.4
2022-10-06T03:32:47.402Z,10.4
2022-10-06T03:33:47.535Z,10.4
2022-10-06T03:34:47.698Z,10.4
2022-10-06T03:35:48.057Z,10.3
2022-10-06T03:36:48.191Z,10.3
2022-10-06T03:37:48.325Z,10.3
2022-10-06T03:38:48.456Z,10.3
2022-10-06T03:39:48.584Z,10.3
2022-10-06T03:40:48.713Z,10.3
2022-10-06T03:41:48.839Z,10.3
2022-10-06T03:42:48.976Z,10.3
2022-10-06T03:43:49.110Z,10.3
2022-10-06T03:44:49.239Z,10.3
2022-10-06T03:45:49.365Z,10.3
2022-10-06T03:46:49.770Z,10.3
2022-10-06T03:47:49.998Z,10.3
2022-10-06T03:48:50.124Z,10.3
2022-10-06T03:49:50.262Z,10.3
2022-10-06T03:50:50.389Z,10.3
2022-10-06T03:51:50.514Z,10.3
2022-10-06T03:52:50.639Z,10.3
2022-10-06T03:53:50.763Z,10.3
2022-10-06T03:54:50.888Z,10.3
2022-10-06T03:55:51.015Z,10.3
2022-10-06T03:56:51.170Z,10.3
2022-10-06T03:57:51.374Z,10.3
2022-10-06T03:58:51.498Z,10.3
2022-10-06T03:59:51.623Z,10.3
2022-10-06T04:00:51.867Z,10.3
2022-10-06T04:01:52.206Z,10.3
2022-10-06T04:02:52.393Z,10.3
2022-10-06T04:03:52.519Z,10.3
2022-10-06T04:04:52.650Z,10.3
2022-10-06T04:05:52.776Z,10.2
2022-10-06T04:06:52.907Z,10.2
2022-10-06T04:07:53.034Z,10.2
2022-10-06T04:08:53.163Z,10.2
2022-10-06T04:09:53.288Z,10.2
2022-10-06T04:10:53.414Z,10.2
2022-10-06T04:11:53.550Z,10.2
2022-10-06T04:12:53.686Z,10.2
2022-10-06T04:13:53.813Z,10.2
2022-10-06T04:15:00.177Z,10.2
2022-10-06T04:16:00.676Z,10.2
2022-10-06T04:17:00.858Z,10.2
2022-10-06T04:18:00.987Z,10.2
2022-10-06T04:19:01.126Z,10.2
2022-10-06T04:20:01.249Z,10.2
2022-10-06T04:21:01.389Z,10.2
2022-10-06T04:22:01.513Z,10.2
2022-10-06T04:23:01.642Z,10.2
2022-10-06T04:24:01.770Z,10.2
2022-10-06T04:25:01.887Z,10.2
2022-10-06T04:26:02.014Z,10.2
2022-10-06T04:27:02.139Z,10.2
2022-10-06T04:28:02.458Z,10.2
2022-10-06T04:29:02.684Z,10.2
2022-10-06T04:30:02.815Z,10.2
2022-10-06T04:31:02.947Z,10.2
2022-10-06T04:32:03.195Z,10.2
2022-10-06T04:33:03.449Z,10.2
2022-10-06T04:34:03.583Z,10.2
2022-10-06T04:35:03.710Z,10.2
2022-10-06T04:36:03.840Z,10.1
2022-10-06T04:37:03.966Z,10.1
2022-10-06T04:38:04.114Z,10.1
2022-10-06T04:39:04.248Z,10.1
2022-10-06T04:40:04.374Z,10.1
2022-10-06T04:41:04.498Z,10.1
2022-10-06T04:42:04.621Z,10.1
2022-10-06T04:43:04.749Z,10.1
2022-10-06T04:44:04.876Z,10.1
2022-10-06T04:45:05.008Z,10.1
2022-10-06T04:46:42.534Z,10.2
2022-10-06T04:47:45.073Z,10.2
2022-10-06T04:48:45.201Z,10.2
2022-10-06T04:49:45.331Z,10.2
2022-10-06T04:50:45.455Z,10.2
2022-10-06T04:51:45.581Z,10.2
2022-10-06T04:52:45.737Z,10.2
2022-10-06T04:53:45.928Z,10.2
2022-10-06T04:54:46.053Z,10.2
2022-10-06T04:55:46.178Z,10.2
2022-10-06T04:56:46.309Z,10.2
2022-10-06T04:57:46.465Z,10.2
2022-10-06T04:58:46.594Z,10.2
2022-10-06T04:59:46.724Z,10.2
2022-10-06T05:00:46.981Z,10.2
2022-10-06T05:01:47.371Z,10.2
2022-10-06T05:02:47.617Z,10.2
2022-10-06T05:03:47.752Z,10.2
2022-10-06T05:04:47.874Z,10.2
2022-10-06T05:05:47.996Z,10.2
2022-10-06T05:06:48.126Z,10.2
2022-10-06T05:07:48.254Z,10.2
2022-10-06T05:08:48.379Z,10.2
2022-10-06T05:09:48.506Z,10.2
2022-10-06T05:10:48.632Z,10.2
2022-10-06T05:11:48.756Z,10.2
2022-10-06T05:12:48.907Z,10.2
2022-10-06T05:13:49.039Z,10.2
2022-10-06T05:14:49.185Z,10.2
2022-10-06T05:15:49.332Z,10.3
2022-10-06T05:16:49.773Z,10.3
2022-10-06T05:17:50.075Z,10.3
2022-10-06T05:18:50.210Z,10.3
2022-10-06T05:19:50.333Z,10.3
2022-10-06T05:20:50.461Z,10.3
2022-10-06T05:21:50.586Z,10.3
2022-10-06T05:22:50.707Z,10.3
2022-10-06T05:23:50.833Z,10.3
2022-10-06T05:24:50.964Z,10.3
2022-10-06T05:25:51.091Z,10.3
2022-10-06T05:26:51.222Z,10.3
2022-10-06T05:27:51.361Z,10.3
2022-10-06T05:28:51.665Z,10.3
2022-10-06T05:29:51.918Z,10.3
2022-10-06T05:30:52.047Z,10.3
2022-10-06T05:31:52.358Z,10.3
2022-10-06T05:32:52.545Z,10.3
2022-10-06T05:33:52.675Z,10.3
2022-10-06T05:34:52.808Z,10.3
2022-10-06T05:35:52.933Z,10.4
2022-10-06T05:36:53.061Z,10.4
2022-10-06T05:37:53.193Z,10.4
2022-10-06T05:38:53.331Z,10.4
2022-10-06T05:39:53.461Z,10.4
2022-10-06T05:40:53.588Z,10.4
2022-10-06T05:41:53.717Z,10.4
2022-10-06T05:42:53.845Z,10.4
2022-10-06T05:43:53.994Z,10.4
2022-10-06T05:44:54.117Z,10.4
2022-10-06T05:45:54.407Z,10.4
2022-10-06T05:46:54.634Z,10.4
2022-10-06T05:47:54.769Z,10.4
2022-10-06T05:48:54.911Z,10.4
2022-10-06T05:49:55.043Z,10.4
2022-10-06T05:50:55.167Z,10.4
2022-10-06T05:51:55.292Z,10.4
2022-10-06T05:52:55.417Z,10.4
2022-10-06T05:53:55.542Z,10.4
2022-10-06T05:54:55.665Z,10.4
2022-10-06T05:55:55.785Z,10.4
2022-10-06T05:56:55.936Z,10.4
2022-10-06T05:57:56.125Z,10.4
2022-10-06T05:58:56.254Z,10.4
2022-10-06T05:59:56.378Z,10.4
2022-10-06T06:00:56.506Z,10.4
2022-10-06T06:01:56.885Z,10.4
2022-10-06T06:02:57.324Z,10.4
2022-10-06T06:03:57.556Z,10.4
2022-10-06T06:04:57.684Z,10.4
2022-10-06T06:05:57.807Z,10.4
2022-10-06T06:06:57.932Z,10.4
2022-10-06T06:07:58.058Z,10.4
2022-10-06T06:08:58.186Z,10.4
2022-10-06T06:09:58.315Z,10.4
2022-10-06T06:10:58.449Z,10.4
2022-10-06T06:11:58.573Z,10.4
2022-10-06T06:12:58.701Z,10.4
2022-10-06T06:13:58.850Z,10.4
2022-10-06T06:14:58.988Z,10.4
2022-10-06T06:15:59.114Z,10.5
2022-10-06T06:16:59.425Z,10.5
2022-10-06T06:17:59.678Z,10.5
2022-10-06T06:18:59.804Z,10.5
2022-10-06T06:19:59.931Z,10.5
2022-10-06T06:21:00.074Z,10.5
2022-10-06T06:22:00.208Z,10.5
2022-10-06T06:23:00.332Z,10.5
2022-10-06T06:24:00.457Z,10.5
2022-10-06T06:25:00.578Z,10.5
2022-10-06T06:26:02.928Z,10.7
2022-10-06T06:27:03.114Z,10.7
2022-10-06T06:28:03.367Z,10.7
2022-10-06T06:29:03.586Z,10.7
2022-10-06T06:30:03.713Z,10.7
2022-10-06T06:31:03.992Z,10.7
2022-10-06T06:32:04.221Z,10.7
2022-10-06T06:33:04.346Z,10.7
2022-10-06T06:34:04.484Z,10.7
2022-10-06T06:35:04.608Z,10.7
2022-10-06T06:36:04.734Z,10.9
2022-10-06T06:37:11.633Z,10.9
2022-10-06T06:38:15.493Z,11
2022-10-06T06:39:15.620Z,11
2022-10-06T06:40:15.748Z,11
2022-10-06T06:41:15.874Z,11
2022-10-06T06:42:16.000Z,11
2022-10-06T06:43:16.128Z,11
2022-10-06T06:44:16.260Z,11
2022-10-06T06:45:16.395Z,11
2022-10-06T06:46:16.827Z,11.2
2022-10-06T06:47:17.263Z,11.2
2022-10-06T06:48:17.392Z,11.2
2022-10-06T06:49:17.524Z,11.2
2022-10-06T06:50:17.650Z,11.2
2022-10-06T06:51:17.774Z,11.2
2022-10-06T06:52:17.902Z,11.2
2022-10-06T06:53:18.032Z,11.2
2022-10-06T06:54:18.167Z,11.2
2022-10-06T06:55:18.318Z,11.2
2022-10-06T06:56:18.443Z,11.5
2022-10-06T06:57:18.572Z,11.5
2022-10-06T06:58:18.692Z,11.5
2022-10-06T06:59:18.814Z,11.5
2022-10-06T07:00:18.940Z,11.5
2022-10-06T07:01:19.223Z,11.5
2022-10-06T07:02:19.601Z,11.5
2022-10-06T07:03:56.426Z,11.5
2022-10-06T07:04:58.499Z,11.8
2022-10-06T07:05:58.623Z,11.8
2022-10-06T07:06:58.831Z,11.8
2022-10-06T07:07:59.008Z,11.8
2022-10-06T07:08:59.158Z,11.8
2022-10-06T07:09:59.288Z,11.8
2022-10-06T07:10:59.418Z,11.8
2022-10-06T07:11:59.563Z,11.8
2022-10-06T07:12:59.691Z,11.8
2022-10-06T07:13:59.822Z,11.8
2022-10-06T07:14:59.957Z,11.8
2022-10-06T07:16:00.329Z,12.2
2022-10-06T07:17:00.520Z,12.2
2022-10-06T07:18:00.648Z,12.2
2022-10-06T07:19:00.776Z,12.2
2022-10-06T07:20:00.906Z,12.2
2022-10-06T07:21:01.032Z,12.2
2022-10-06T07:22:01.160Z,12.2
2022-10-06T07:23:01.284Z,12.2
2022-10-06T07:24:01.409Z,12.2
2022-10-06T07:25:01.536Z,12.2
2022-10-06T07:26:01.663Z,12.7
2022-10-06T07:27:01.787Z,12.7
2022-10-06T07:28:02.016Z,12.7
2022-10-06T07:29:02.276Z,12.7
2022-10-06T07:30:02.403Z,12.7
2022-10-06T07:31:02.619Z,12.7
2022-10-06T07:32:02.834Z,12.7
2022-10-06T07:33:02.964Z,12.7
2022-10-06T07:34:03.091Z,12.7
2022-10-06T07:35:03.239Z,12.7
2022-10-06T07:36:03.379Z,13.3
2022-10-06T07:37:06.691Z,13.3
2022-10-06T07:38:06.866Z,13.4
2022-10-06T07:39:06.990Z,13.4
2022-10-06T07:40:07.117Z,13.4
2022-10-06T07:41:20.436Z,13.4
2022-10-06T07:42:20.922Z,13.7
2022-10-06T07:43:21.053Z,13.7
2022-10-06T07:44:21.176Z,13.7
2022-10-06T07:45:21.297Z,13.7
2022-10-06T07:46:21.513Z,13.9
2022-10-06T07:47:21.740Z,13.9
2022-10-06T07:48:21.875Z,13.9
2022-10-06T07:49:22.003Z,13.9
2022-10-06T07:50:22.132Z,13.9
2022-10-06T07:51:22.260Z,13.9
2022-10-06T07:52:22.395Z,13.9
2022-10-06T07:53:22.544Z,13.9
2022-10-06T07:54:27.556Z,13.9
2022-10-06T07:55:27.764Z,14.4
2022-10-06T07:56:27.890Z,14.5
2022-10-06T07:57:28.016Z,14.5
2022-10-06T07:58:28.145Z,14.5
2022-10-06T07:59:28.276Z,14.5
2022-10-06T08:00:28.622Z,14.5
2022-10-06T08:01:28.996Z,14.5
2022-10-06T08:02:34.823Z,14.5
2022-10-06T08:03:36.495Z,14.9
2022-10-06T08:04:36.616Z,14.9
2022-10-06T08:05:36.745Z,15.1
2022-10-06T08:06:36.867Z,15.1
2022-10-06T08:07:36.995Z,15.1
2022-10-06T08:08:37.136Z,15.1
2022-10-06T08:09:37.260Z,15.1
2022-10-06T08:10:37.397Z,15.1
2022-10-06T08:11:37.530Z,15.1
2022-10-06T08:12:38.165Z,15.1
2022-10-06T08:13:38.365Z,15.1
2022-10-06T08:14:38.500Z,15.1
2022-10-06T08:15:38.799Z,15.8
2022-10-06T08:16:39.054Z,15.8
2022-10-06T08:17:39.197Z,15.8
2022-10-06T08:18:47.378Z,15.8
2022-10-06T08:19:47.647Z,16.1
2022-10-06T08:20:47.774Z,16.1
2022-10-06T08:21:47.901Z,16.1
2022-10-06T08:22:48.032Z,16.1
2022-10-06T08:23:48.177Z,16.1
2022-10-06T08:25:06.945Z,16.1
2022-10-06T08:26:07.744Z,16.79
2022-10-06T08:27:07.872Z,16.79
2022-10-06T08:28:08.199Z,16.79
2022-10-06T08:29:08.380Z,16.79
2022-10-06T08:30:08.515Z,16.79
2022-10-06T08:31:08.813Z,16.79
2022-10-06T08:32:09.074Z,16.79
2022-10-06T08:33:09.206Z,16.79
2022-10-06T08:34:12.280Z,16.79
2022-10-06T08:35:12.565Z,17.79
2022-10-06T08:36:12.692Z,17.79
2022-10-06T08:37:20.687Z,17.79
2022-10-06T08:38:20.947Z,18
2022-10-06T08:39:21.071Z,18
2022-10-06T08:40:21.247Z,18
2022-10-06T08:41:21.379Z,18
2022-10-06T08:42:21.505Z,18
2022-10-06T08:43:21.631Z,18
2022-10-06T08:44:21.755Z,18
2022-10-06T08:45:21.886Z,18.7
2022-10-06T08:46:24.987Z,18.7
2022-10-06T08:47:25.177Z,18.7
2022-10-06T08:48:25.306Z,18.7
2022-10-06T08:49:25.438Z,18.7
2022-10-06T08:50:25.574Z,18.7
2022-10-06T08:51:25.706Z,18.7
2022-10-06T08:52:25.833Z,18.7
2022-10-06T08:53:25.958Z,18.7
2022-10-06T08:54:26.081Z,19.7
2022-10-06T08:55:26.209Z,19.7
2022-10-06T08:56:26.330Z,19.7
2022-10-06T08:57:26.465Z,19.7
2022-10-06T08:58:26.591Z,19.7
2022-10-06T08:59:26.723Z,19.7
2022-10-06T09:00:26.854Z,19.7
2022-10-06T09:01:27.110Z,19.7
2022-10-06T09:02:27.513Z,19.7
2022-10-06T09:03:27.734Z,19.7
2022-10-06T09:04:27.855Z,20.7
2022-10-06T09:05:27.982Z,20.7
2022-10-06T09:06:28.112Z,20.7
2022-10-06T09:07:28.241Z,20.7
2022-10-06T09:08:28.372Z,20.7
2022-10-06T09:09:28.497Z,20.7
2022-10-06T09:10:28.623Z,20.7
2022-10-06T09:11:28.755Z,20.7
2022-10-06T09:12:28.883Z,20.7
2022-10-06T09:13:29.011Z,20.7
2022-10-06T09:14:29.141Z,21.5
2022-10-06T09:15:29.281Z,21.5
2022-10-06T09:16:29.536Z,21.5
2022-10-06T09:17:29.845Z,21.5
2022-10-06T09:19:08.020Z,21.5
2022-10-06T09:20:09.728Z,22
2022-10-06T09:21:09.874Z,22
2022-10-06T09:22:10.016Z,22
2022-10-06T09:23:10.143Z,22
2022-10-06T09:24:10.268Z,22.4
2022-10-06T09:25:10.398Z,22.4
2022-10-06T09:26:10.530Z,22.4
2022-10-06T09:27:10.771Z,22.4
2022-10-06T09:28:11.117Z,22.4
2022-10-06T09:29:11.325Z,22.4
2022-10-06T09:30:11.453Z,22.4
2022-10-06T09:31:11.695Z,22.4
2022-10-06T09:32:11.910Z,22.4
2022-10-06T09:33:12.040Z,22.4
2022-10-06T09:34:12.167Z,23.3
2022-10-06T09:35:12.294Z,23.3
2022-10-06T09:36:12.428Z,23.3
2022-10-06T09:37:12.551Z,23.3
2022-10-06T09:38:12.682Z,23.3
2022-10-06T09:39:12.809Z,23.3
2022-10-06T09:40:12.933Z,23.3
2022-10-06T09:41:13.059Z,23.3
2022-10-06T09:42:13.180Z,23.3
2022-10-06T09:43:13.299Z,23.3
2022-10-06T09:44:13.430Z,24.2
2022-10-06T09:45:13.563Z,24.2
2022-10-06T09:46:13.694Z,24.2
2022-10-06T09:47:13.826Z,24.2
2022-10-06T09:48:13.952Z,24.2
2022-10-06T09:49:14.075Z,24.2
2022-10-06T09:50:14.214Z,24.2
2022-10-06T09:51:14.378Z,24.2
2022-10-06T09:52:14.515Z,24.2
2022-10-06T09:53:14.637Z,24.2
2022-10-06T09:54:14.817Z,24.9
2022-10-06T09:55:14.988Z,24.9
2022-10-06T09:56:15.130Z,24.9
2022-10-06T09:57:15.300Z,24.9
2022-10-06T09:58:15.467Z,24.9
2022-10-06T09:59:15.599Z,24.9
2022-10-06T10:00:15.730Z,24.9
2022-10-06T10:01:16.052Z,24.9
2022-10-06T10:02:16.279Z,24.9
2022-10-06T10:03:16.496Z,24.9
2022-10-06T10:04:22.012Z,25.5
2022-10-06T10:05:22.323Z,25.5
2022-10-06T10:06:22.601Z,25.5
2022-10-06T10:07:22.859Z,25.5
2022-10-06T10:08:23.153Z,25.5
2022-10-06T10:09:23.471Z,25.5
2022-10-06T10:10:23.628Z,25.5
2022-10-06T10:11:23.762Z,25.5
2022-10-06T10:12:23.895Z,25.5
2022-10-06T10:13:24.028Z,25.5
2022-10-06T10:14:24.154Z,25.9
2022-10-06T10:15:24.286Z,25.9
2022-10-06T10:16:24.557Z,25.9
2022-10-06T10:17:24.791Z,25.9
2022-10-06T10:18:24.914Z,25.9
2022-10-06T10:19:25.038Z,25.9
2022-10-06T10:20:25.167Z,25.9
2022-10-06T10:21:25.429Z,25.9
2022-10-06T10:22:25.703Z,25.9
2022-10-06T10:23:32.091Z,25.9
2022-10-06T10:24:32.425Z,26.3
2022-10-06T10:25:32.550Z,26.3
2022-10-06T10:26:32.675Z,26.3
2022-10-06T10:27:32.806Z,26.3
2022-10-06T10:28:33.085Z,26.3
2022-10-06T10:29:33.562Z,26.3
2022-10-06T10:30:33.686Z,26.3
2022-10-06T10:31:33.939Z,26.3
2022-10-06T10:32:34.187Z,26.3
2022-10-06T10:33:34.318Z,26.3
2022-10-06T10:34:34.447Z,26.7
2022-10-06T10:35:34.573Z,26.7
2022-10-06T10:36:34.705Z,26.7
2022-10-06T10:37:34.846Z,26.7
2022-10-06T10:38:34.974Z,26.7
2022-10-06T10:39:35.102Z,26.7
2022-10-06T10:40:35.226Z,26.7
2022-10-06T10:41:35.365Z,26.7
2022-10-06T10:42:35.491Z,26.7
2022-10-06T10:43:35.614Z,26.7
2022-10-06T10:44:35.739Z,27
2022-10-06T10:45:35.870Z,27
2022-10-06T10:46:36.128Z,27
2022-10-06T10:47:36.346Z,27
2022-10-06T10:48:36.469Z,27
2022-10-06T10:49:36.597Z,27
2022-10-06T10:50:36.729Z,27
2022-10-06T10:51:36.851Z,27
2022-10-06T10:52:36.981Z,27
2022-10-06T10:53:42.653Z,27
2022-10-06T10:54:43.058Z,27.1
2022-10-06T10:55:43.184Z,27.1
2022-10-06T10:56:43.326Z,27.1
2022-10-06T10:57:43.457Z,27.1
2022-10-06T10:58:43.586Z,27.1
2022-10-06T10:59:43.708Z,27.1
2022-10-06T11:00:43.928Z,27.1
2022-10-06T11:01:44.252Z,27.1
2022-10-06T11:02:44.447Z,27.1
2022-10-06T11:03:44.567Z,27.1
2022-10-06T11:04:44.691Z,27.2
2022-10-06T11:05:44.821Z,27.2
2022-10-06T11:06:44.941Z,27.2
2022-10-06T11:07:45.198Z,27.2
2022-10-06T11:08:45.443Z,27.2
2022-10-06T11:09:45.574Z,27.2
2022-10-06T11:10:45.701Z,27.2
2022-10-06T11:11:52.468Z,27.2
2022-10-06T11:12:52.679Z,27.4
2022-10-06T11:13:52.807Z,27.4
2022-10-06T11:14:52.932Z,27.5
2022-10-06T11:15:53.232Z,27.5
2022-10-06T11:16:53.524Z,27.5
2022-10-06T11:17:53.648Z,27.5
2022-10-06T11:18:53.779Z,27.5
2022-10-06T11:19:53.903Z,27.5
2022-10-06T11:20:54.029Z,27.5
2022-10-06T11:21:54.161Z,27.5
2022-10-06T11:22:54.295Z,27.5
2022-10-06T11:23:54.421Z,27.5
2022-10-06T11:24:54.623Z,27.7
2022-10-06T11:25:54.816Z,27.7
2022-10-06T11:26:54.945Z,27.7
2022-10-06T11:27:55.068Z,27.7
2022-10-06T11:28:55.229Z,27.7
2022-10-06T11:29:55.930Z,27.7
2022-10-06T11:30:56.610Z,27.7
2022-10-06T11:31:56.897Z,27.7
2022-10-06T11:32:57.228Z,27.7
2022-10-06T11:33:57.352Z,28
2022-10-06T11:34:57.478Z,28
2022-10-06T11:35:57.606Z,28
2022-10-06T11:36:57.733Z,28
2022-10-06T11:37:58.045Z,28
2022-10-06T11:38:58.225Z,28
2022-10-06T11:39:59.110Z,28
2022-10-06T11:40:59.834Z,28
2022-10-06T11:41:59.961Z,28
2022-10-06T11:43:00.089Z,28
2022-10-06T11:44:00.219Z,28.5
2022-10-06T11:45:01.482Z,28.5
2022-10-06T11:46:02.451Z,28.5
2022-10-06T11:47:02.684Z,28.5
2022-10-06T11:48:02.808Z,28.5
2022-10-06T11:49:02.938Z,28.5
2022-10-06T11:50:03.062Z,28.5
2022-10-06T11:51:03.185Z,28.5
2022-10-06T11:52:08.545Z,28.5
2022-10-06T11:53:09.117Z,29.1
2022-10-06T11:54:09.248Z,29.2
2022-10-06T11:55:09.374Z,29.2
2022-10-06T11:56:09.508Z,29.2
2022-10-06T11:57:09.633Z,29.2
2022-10-06T11:58:42.160Z,29.2
2022-10-06T11:59:43.017Z,29.5
2022-10-06T12:00:43.141Z,29.5
2022-10-06T12:01:43.417Z,29.5
2022-10-06T12:02:43.793Z,29.5
2022-10-06T12:03:44.220Z,29.5
2022-10-06T12:04:44.342Z,29.9
2022-10-06T12:05:59.754Z,29.9
2022-10-06T12:06:59.887Z,30.1
2022-10-06T12:08:00.008Z,30.1
2022-10-06T12:09:00.139Z,30.1
2022-10-06T12:10:00.269Z,30.1
2022-10-06T12:11:00.394Z,30.1
2022-10-06T12:12:00.522Z,30.1
2022-10-06T12:13:39.365Z,30.1
2022-10-06T12:17:19.647Z,30
2022-10-06T12:18:20.203Z,29.9
2022-10-06T12:19:20.330Z,29.9
2022-10-06T12:20:20.453Z,29.9
2022-10-06T12:21:20.582Z,29.9
2022-10-06T12:22:20.756Z,29.9
2022-10-06T12:23:20.889Z,29.9
2022-10-06T12:24:21.025Z,29.9
2022-10-06T12:25:21.151Z,29.9
2022-10-06T12:26:21.339Z,29.9
2022-10-06T12:27:26.133Z,29.9
2022-10-06T12:28:26.875Z,30
2022-10-06T12:29:27.133Z,30
2022-10-06T12:30:27.328Z,30
2022-10-06T12:31:27.606Z,30
2022-10-06T12:32:27.768Z,30
2022-10-06T12:33:27.892Z,30
2022-10-06T12:34:28.023Z,30.3
2022-10-06T12:35:28.146Z,30.3
2022-10-06T12:36:28.271Z,30.3
2022-10-06T12:37:28.397Z,30.3
2022-10-06T12:38:28.525Z,30.3
2022-10-06T12:39:28.650Z,30.3
2022-10-06T12:40:28.813Z,30.3
2022-10-06T12:41:28.944Z,30.3
2022-10-06T12:42:29.083Z,30.3
2022-10-06T12:43:29.214Z,30.3
2022-10-06T12:44:29.348Z,30.7
2022-10-06T12:45:29.475Z,30.7
2022-10-06T12:46:29.702Z,30.7
2022-10-06T12:47:30.048Z,30.7
2022-10-06T12:48:30.178Z,30.7
2022-10-06T12:49:30.310Z,30.7
2022-10-06T12:50:30.434Z,30.7
2022-10-06T12:51:30.734Z,30.7
2022-10-06T12:52:30.883Z,30.7
2022-10-06T12:53:31.023Z,30.7
2022-10-06T12:54:31.150Z,30.8
2022-10-06T12:55:31.301Z,30.8
2022-10-06T12:56:31.429Z,30.8
2022-10-06T12:57:31.561Z,30.8
2022-10-06T12:58:31.689Z,30.8
2022-10-06T12:59:31.812Z,30.8
2022-10-06T13:00:31.957Z,30.8
2022-10-06T13:01:32.166Z,30.8
2022-10-06T13:02:32.531Z,30.8
2022-10-06T13:03:32.792Z,30.8
2022-10-06T13:04:32.917Z,30.8
2022-10-06T13:05:33.044Z,30.8
2022-10-06T13:06:33.172Z,30.8
2022-10-06T13:07:33.301Z,30.8
2022-10-06T13:08:33.429Z,30.8
2022-10-06T13:09:33.563Z,30.8
2022-10-06T13:10:34.012Z,30.8
2022-10-06T13:11:34.282Z,30.8
2022-10-06T13:12:34.410Z,30.8
2022-10-06T13:13:34.536Z,30.8
2022-10-06T13:14:34.673Z,30.2
2022-10-06T13:15:35.044Z,30.2
2022-10-06T13:16:35.320Z,30.2
2022-10-06T13:17:35.530Z,30.2
2022-10-06T13:18:35.660Z,30.2
2022-10-06T13:19:35.798Z,30.2
2022-10-06T13:20:35.927Z,30.2
2022-10-06T13:21:36.063Z,30.2
2022-10-06T13:22:36.192Z,30.2
2022-10-06T13:23:36.316Z,29.2
2022-10-06T13:24:36.438Z,29.2
2022-10-06T13:25:36.577Z,29.2
2022-10-06T13:26:36.705Z,29.2
2022-10-06T13:27:36.840Z,29.2
2022-10-06T13:28:37.263Z,29.2
2022-10-06T13:29:37.516Z,29.2
2022-10-06T13:30:39.172Z,29.2
2022-10-06T13:31:39.408Z,28.2